メインページ
METAR-TAF:

METAR-TAF

空港 :

ミッドランド, ミシガン州, アメリカ合衆国

緯度: 43-39-46N, 経度: 084-15-41W, 海抜: 194m

現時点の気象観測

当レポートは8分前の13:55(UTC)に作成
西/北西の風 4kt
気温 -2°C
湿度 69%
気圧 1014 hPa
視程: 16.1km
高度5500ftの千切れ雲あり

METAR: KIKW 151355Z AUTO 29004KT 10SM BKN055 M02/M07 A2995 RMK AO2 T10251070

時間: 09:03 (14:03 UTC)


TAF: 見つかりません

4,000以上の空港の気象観測と天気予報(METAR報とTAF報)

利用可能な観測所は地図上に黄色い丸と赤い丸で示す。

丸の上にカーソルを重ねると観測所名を参照できる。

次にクリックすると気象観測と天気予報を参照できる。

マップの切り替え:黒色「×」印の緑ボタンをクリックして拡大、「-」印の緑ボタンをクリックして縮小、緑色の三角印をクリックして隣りの地図に切り替え


METAR-TAF: